createdAt,value
2023-05-05T00:00:52.347Z,1016.07
2023-05-05T00:01:52.341Z,1016.07
2023-05-05T00:02:52.350Z,1016.07
2023-05-05T00:03:52.378Z,1016.08
2023-05-05T00:04:52.274Z,1016.07
2023-05-05T00:05:52.319Z,1016.06
2023-05-05T00:06:52.263Z,1016.03
2023-05-05T00:07:52.255Z,1016.04
2023-05-05T00:08:52.235Z,1016.04
2023-05-05T00:09:52.227Z,1016.05
2023-05-05T00:10:52.255Z,1016.05
2023-05-05T00:11:52.205Z,1016.06
2023-05-05T00:12:52.242Z,1016.06
2023-05-05T00:13:52.194Z,1016.05
2023-05-05T00:14:52.232Z,1016.06
2023-05-05T00:15:52.201Z,1016.05
2023-05-05T00:16:52.185Z,1016.05
2023-05-05T00:17:52.228Z,1016.05
2023-05-05T00:18:52.136Z,1016.04
2023-05-05T00:19:52.115Z,1016.03
2023-05-05T00:20:52.362Z,1016.05
2023-05-05T00:21:52.122Z,1016.06
2023-05-05T00:22:52.082Z,1016.05
2023-05-05T00:23:52.085Z,1016.05
2023-05-05T00:24:52.102Z,1016.03
2023-05-05T00:25:52.057Z,1016.02
2023-05-05T00:26:52.052Z,1016.00
2023-05-05T00:27:52.069Z,1015.99
2023-05-05T00:28:52.047Z,1015.98
2023-05-05T00:29:52.036Z,1015.97
2023-05-05T00:30:52.060Z,1015.98
2023-05-05T00:31:52.016Z,1015.95
2023-05-05T00:32:52.016Z,1015.96
2023-05-05T00:33:52.017Z,1015.94
2023-05-05T00:34:51.961Z,1015.94
2023-05-05T00:35:51.966Z,1015.92
2023-05-05T00:36:51.990Z,1015.90
2023-05-05T00:37:51.940Z,1015.90
2023-05-05T00:38:51.969Z,1015.89
2023-05-05T00:39:51.914Z,1015.87
2023-05-05T00:40:51.938Z,1015.86
2023-05-05T00:41:51.897Z,1015.87
2023-05-05T00:42:51.889Z,1015.84
2023-05-05T00:43:51.888Z,1015.84
2023-05-05T00:44:51.892Z,1015.82
2023-05-05T00:45:51.849Z,1015.82
2023-05-05T00:46:51.864Z,1015.82
2023-05-05T00:47:51.874Z,1015.80
2023-05-05T00:48:51.860Z,1015.81
2023-05-05T00:49:51.840Z,1015.81
2023-05-05T00:50:51.813Z,1015.81
2023-05-05T00:51:51.799Z,1015.80
2023-05-05T00:52:51.796Z,1015.81
2023-05-05T00:53:51.787Z,1015.80
2023-05-05T00:54:51.751Z,1015.79
2023-05-05T00:55:51.771Z,1015.78
2023-05-05T00:56:51.746Z,1015.77
2023-05-05T00:57:51.736Z,1015.75
2023-05-05T00:58:51.713Z,1015.75
2023-05-05T00:59:51.711Z,1015.76
2023-05-05T01:00:51.703Z,1015.76
2023-05-05T01:01:51.743Z,1015.76
2023-05-05T01:02:51.717Z,1015.77
2023-05-05T01:03:51.738Z,1015.76
2023-05-05T01:04:51.656Z,1015.75
2023-05-05T01:05:51.657Z,1015.76
2023-05-05T01:06:51.643Z,1015.75
2023-05-05T01:07:51.619Z,1015.76
2023-05-05T01:08:51.603Z,1015.75
2023-05-05T01:10:00.898Z,1015.76
2023-05-05T01:10:51.607Z,1015.75
2023-05-05T01:11:51.609Z,1015.73
2023-05-05T01:12:51.603Z,1015.74
2023-05-05T01:13:51.557Z,1015.73
2023-05-05T01:14:51.550Z,1015.72
2023-05-05T01:15:51.570Z,1015.73
2023-05-05T01:16:51.528Z,1015.73
2023-05-05T01:17:51.591Z,1015.73
2023-05-05T01:18:51.503Z,1015.73
2023-05-05T01:19:51.485Z,1015.74
2023-05-05T01:20:51.565Z,1015.74
2023-05-05T01:21:51.482Z,1015.75
2023-05-05T01:22:52.329Z,1015.74
2023-05-05T01:23:51.449Z,1015.73
2023-05-05T01:24:51.581Z,1015.72
2023-05-05T01:25:51.761Z,1015.72
2023-05-05T01:26:51.436Z,1015.69
2023-05-05T01:27:51.406Z,1015.68
2023-05-05T01:28:51.406Z,1015.66
2023-05-05T01:29:51.414Z,1015.66
2023-05-05T01:30:51.373Z,1015.65
2023-05-05T01:31:51.454Z,1015.64
2023-05-05T01:32:51.390Z,1015.63
2023-05-05T01:33:51.347Z,1015.62
2023-05-05T01:34:51.399Z,1015.62
2023-05-05T01:35:51.315Z,1015.63
2023-05-05T01:36:51.308Z,1015.62
2023-05-05T01:37:51.443Z,1015.63
2023-05-05T01:38:51.310Z,1015.64
2023-05-05T01:39:51.307Z,1015.64
2023-05-05T01:40:51.276Z,1015.65
2023-05-05T01:41:51.270Z,1015.66
2023-05-05T01:42:51.254Z,1015.66
2023-05-05T01:43:51.270Z,1015.67
2023-05-05T01:44:51.229Z,1015.67
2023-05-05T01:45:51.269Z,1015.68
2023-05-05T01:46:51.217Z,1015.69
2023-05-05T01:47:51.227Z,1015.69
2023-05-05T01:48:51.199Z,1015.69
2023-05-05T01:49:51.182Z,1015.71
2023-05-05T01:50:51.171Z,1015.71
2023-05-05T01:51:51.158Z,1015.71
2023-05-05T01:52:51.194Z,1015.69
2023-05-05T01:53:51.121Z,1015.71
2023-05-05T01:54:51.147Z,1015.69
2023-05-05T01:55:51.139Z,1015.69
2023-05-05T01:56:51.098Z,1015.70
2023-05-05T01:57:51.092Z,1015.68
2023-05-05T01:58:51.114Z,1015.69
2023-05-05T01:59:51.098Z,1015.68
2023-05-05T02:00:51.115Z,1015.67
2023-05-05T02:01:51.054Z,1015.65
2023-05-05T02:02:51.175Z,1015.64
2023-05-05T02:03:51.011Z,1015.63
2023-05-05T02:04:51.142Z,1015.62
2023-05-05T02:05:50.998Z,1015.60
2023-05-05T02:06:51.013Z,1015.62
2023-05-05T02:07:50.987Z,1015.60
2023-05-05T02:08:50.970Z,1015.61
2023-05-05T02:09:50.961Z,1015.59
2023-05-05T02:10:51.060Z,1015.61
2023-05-05T02:11:50.961Z,1015.62
2023-05-05T02:12:50.988Z,1015.61
2023-05-05T02:13:50.952Z,1015.62
2023-05-05T02:14:50.917Z,1015.61
2023-05-05T02:15:51.027Z,1015.59
2023-05-05T02:16:50.888Z,1015.59
2023-05-05T02:17:50.901Z,1015.59
2023-05-05T02:18:50.871Z,1015.58
2023-05-05T02:19:50.862Z,1015.59
2023-05-05T02:20:50.864Z,1015.59
2023-05-05T02:21:50.859Z,1015.59
2023-05-05T02:22:50.891Z,1015.58
2023-05-05T02:23:50.805Z,1015.59
2023-05-05T02:24:50.811Z,1015.58
2023-05-05T02:25:50.804Z,1015.59
2023-05-05T02:26:50.788Z,1015.59
2023-05-05T02:27:50.778Z,1015.60
2023-05-05T02:28:50.759Z,1015.60
2023-05-05T02:29:50.770Z,1015.61
2023-05-05T02:30:50.773Z,1015.59
2023-05-05T02:31:50.843Z,1015.59
2023-05-05T02:32:50.774Z,1015.59
2023-05-05T02:33:50.709Z,1015.59
2023-05-05T02:34:50.743Z,1015.59
2023-05-05T02:35:50.689Z,1015.59
2023-05-05T02:36:50.678Z,1015.57
2023-05-05T02:37:50.661Z,1015.57
2023-05-05T02:38:50.672Z,1015.55
2023-05-05T02:39:50.677Z,1015.56
2023-05-05T02:40:50.629Z,1015.55
2023-05-05T02:41:50.613Z,1015.54
2023-05-05T02:42:50.665Z,1015.54
2023-05-05T02:43:50.614Z,1015.53
2023-05-05T02:44:50.599Z,1015.54
2023-05-05T02:45:50.645Z,1015.55
2023-05-05T02:46:50.611Z,1015.56
2023-05-05T02:47:50.571Z,1015.56
2023-05-05T02:48:50.546Z,1015.56
2023-05-05T02:49:50.528Z,1015.54
2023-05-05T02:50:50.532Z,1015.54
2023-05-05T02:51:50.509Z,1015.55
2023-05-05T02:52:50.561Z,1015.53
2023-05-05T02:53:50.494Z,1015.53
2023-05-05T02:54:50.478Z,1015.52
2023-05-05T02:55:50.471Z,1015.52
2023-05-05T02:56:50.422Z,1015.54
2023-05-05T02:57:50.398Z,1015.54
2023-05-05T02:58:50.577Z,1015.54
2023-05-05T02:59:50.455Z,1015.56
2023-05-05T03:00:50.445Z,1015.57
2023-05-05T03:01:50.486Z,1015.57
2023-05-05T03:02:50.492Z,1015.57
2023-05-05T03:03:50.441Z,1015.58
2023-05-05T03:04:50.370Z,1015.57
2023-05-05T03:05:50.368Z,1015.56
2023-05-05T03:06:50.317Z,1015.54
2023-05-05T03:07:50.301Z,1015.54
2023-05-05T03:08:50.295Z,1015.51
2023-05-05T03:09:50.275Z,1015.50
2023-05-05T03:10:50.249Z,1015.51
2023-05-05T03:11:50.243Z,1015.51
2023-05-05T03:12:50.277Z,1015.53
2023-05-05T03:13:50.218Z,1015.54
2023-05-05T03:14:50.215Z,1015.54
2023-05-05T03:15:50.203Z,1015.56
2023-05-05T03:16:50.216Z,1015.57
2023-05-05T03:17:50.225Z,1015.57
2023-05-05T03:18:50.175Z,1015.56
2023-05-05T03:19:50.181Z,1015.55
2023-05-05T03:20:50.146Z,1015.55
2023-05-05T03:21:50.160Z,1015.53
2023-05-05T03:22:50.134Z,1015.54
2023-05-05T03:23:50.113Z,1015.54
2023-05-05T03:24:50.110Z,1015.54
2023-05-05T03:25:50.120Z,1015.53
2023-05-05T03:26:50.110Z,1015.53
2023-05-05T03:27:50.088Z,1015.56
2023-05-05T03:28:50.072Z,1015.54
2023-05-05T03:29:50.046Z,1015.54
2023-05-05T03:30:50.049Z,1015.55
2023-05-05T03:31:50.145Z,1015.55
2023-05-05T03:32:50.069Z,1015.55
2023-05-05T03:33:50.020Z,1015.55
2023-05-05T03:34:50.025Z,1015.54
2023-05-05T03:35:50.017Z,1015.54
2023-05-05T03:36:49.975Z,1015.56
2023-05-05T03:37:49.983Z,1015.58
2023-05-05T03:38:49.953Z,1015.59
2023-05-05T03:39:49.971Z,1015.60
2023-05-05T03:40:49.964Z,1015.61
2023-05-05T03:41:49.922Z,1015.62
2023-05-05T03:42:49.977Z,1015.63
2023-05-05T03:43:49.938Z,1015.62
2023-05-05T03:44:49.923Z,1015.61
2023-05-05T03:45:49.958Z,1015.60
2023-05-05T03:46:49.872Z,1015.58
2023-05-05T03:47:49.912Z,1015.59
2023-05-05T03:48:49.849Z,1015.60
2023-05-05T03:49:49.852Z,1015.55
2023-05-05T03:50:49.825Z,1015.56
2023-05-05T03:51:49.807Z,1015.58
2023-05-05T03:52:49.806Z,1015.58
2023-05-05T03:53:49.791Z,1015.58
2023-05-05T03:54:49.813Z,1015.59
2023-05-05T03:55:49.785Z,1015.59
2023-05-05T03:56:49.780Z,1015.57
2023-05-05T03:57:49.746Z,1015.59
2023-05-05T03:58:49.765Z,1015.55
2023-05-05T03:59:49.743Z,1015.54
2023-05-05T04:00:49.750Z,1015.56
2023-05-05T04:01:49.722Z,1015.53
2023-05-05T04:02:49.824Z,1015.53
2023-05-05T04:03:49.756Z,1015.54
2023-05-05T04:04:49.693Z,1015.51
2023-05-05T04:05:49.684Z,1015.53
2023-05-05T04:06:49.675Z,1015.52
2023-05-05T04:07:49.656Z,1015.53
2023-05-05T04:08:49.655Z,1015.53
2023-05-05T04:09:49.630Z,1015.54
2023-05-05T04:10:49.656Z,1015.54
2023-05-05T04:11:49.620Z,1015.55
2023-05-05T04:12:49.728Z,1015.54
2023-05-05T04:13:49.898Z,1015.53
2023-05-05T04:14:49.583Z,1015.53
2023-05-05T04:15:49.613Z,1015.56
2023-05-05T04:16:49.565Z,1015.56
2023-05-05T04:17:49.586Z,1015.55
2023-05-05T04:18:49.588Z,1015.57
2023-05-05T04:19:49.565Z,1015.56
2023-05-05T04:20:49.528Z,1015.57
2023-05-05T04:21:49.516Z,1015.55
2023-05-05T04:22:51.413Z,1015.54
2023-05-05T04:23:49.488Z,1015.53
2023-05-05T04:24:50.511Z,1015.50
2023-05-05T04:25:49.458Z,1015.52
2023-05-05T04:26:49.464Z,1015.52
2023-05-05T04:27:49.499Z,1015.52
2023-05-05T04:28:49.445Z,1015.50
2023-05-05T04:29:49.424Z,1015.46
2023-05-05T04:30:49.418Z,1015.49
2023-05-05T04:31:49.611Z,1015.53
2023-05-05T04:32:49.448Z,1015.54
2023-05-05T04:33:49.377Z,1015.59
2023-05-05T04:34:49.366Z,1015.60
2023-05-05T04:35:49.375Z,1015.61
2023-05-05T04:36:49.395Z,1015.64
2023-05-05T04:37:49.323Z,1015.65
2023-05-05T04:38:49.352Z,1015.65
2023-05-05T04:39:49.353Z,1015.64
2023-05-05T04:40:49.321Z,1015.67
2023-05-05T04:41:49.312Z,1015.68
2023-05-05T04:42:49.290Z,1015.71
2023-05-05T04:43:49.290Z,1015.69
2023-05-05T04:44:49.260Z,1015.72
2023-05-05T04:45:49.316Z,1015.71
2023-05-05T04:46:49.299Z,1015.74
2023-05-05T04:47:49.272Z,1015.76
2023-05-05T04:48:49.292Z,1015.75
2023-05-05T04:49:49.275Z,1015.76
2023-05-05T04:50:49.215Z,1015.76
2023-05-05T04:51:49.203Z,1015.77
2023-05-05T04:52:50.782Z,1015.75
2023-05-05T04:53:49.160Z,1015.77
2023-05-05T04:54:49.227Z,1015.78
2023-05-05T04:55:49.294Z,1015.81
2023-05-05T04:56:49.148Z,1015.84
2023-05-05T04:57:49.127Z,1015.83
2023-05-05T04:58:49.134Z,1015.88
2023-05-05T04:59:49.106Z,1015.87
2023-05-05T05:00:49.107Z,1015.86
2023-05-05T05:01:49.150Z,1015.87
2023-05-05T05:02:49.153Z,1015.93
2023-05-05T05:03:49.114Z,1015.90
2023-05-05T05:04:49.071Z,1015.91
2023-05-05T05:05:49.035Z,1015.93
2023-05-05T05:06:49.035Z,1015.90
2023-05-05T05:07:49.031Z,1015.92
2023-05-05T05:08:48.998Z,1015.93
2023-05-05T05:09:49.009Z,1015.96
2023-05-05T05:10:48.977Z,1015.93
2023-05-05T05:11:49.010Z,1015.93
2023-05-05T05:12:49.012Z,1015.95
2023-05-05T05:13:48.981Z,1015.95
2023-05-05T05:14:48.958Z,1015.97
2023-05-05T05:15:48.951Z,1015.99
2023-05-05T05:16:48.984Z,1015.98
2023-05-05T05:17:48.945Z,1015.98
2023-05-05T05:18:48.902Z,1015.98
2023-05-05T05:19:48.914Z,1015.98
2023-05-05T05:20:48.869Z,1015.95
2023-05-05T05:21:48.886Z,1015.95
2023-05-05T05:22:48.865Z,1015.93
2023-05-05T05:23:48.902Z,1015.93
2023-05-05T05:24:48.832Z,1015.92
2023-05-05T05:25:48.834Z,1015.91
2023-05-05T05:26:48.814Z,1015.93
2023-05-05T05:27:58.520Z,1015.94
2023-05-05T05:28:48.829Z,1015.92
2023-05-05T05:29:48.788Z,1015.93
2023-05-05T05:30:48.770Z,1015.93
2023-05-05T05:31:48.772Z,1015.93
2023-05-05T05:32:48.792Z,1015.93
2023-05-05T05:33:48.739Z,1015.96
2023-05-05T05:34:48.728Z,1015.95
2023-05-05T05:35:48.715Z,1015.97
2023-05-05T05:36:48.703Z,1015.97
2023-05-05T05:37:48.973Z,1015.99
2023-05-05T05:38:48.685Z,1015.95
2023-05-05T05:39:48.671Z,1015.93
2023-05-05T05:40:48.653Z,1015.94
2023-05-05T05:41:48.667Z,1015.96
2023-05-05T05:42:48.657Z,1015.97
2023-05-05T05:43:48.618Z,1015.96
2023-05-05T05:44:48.637Z,1015.97
2023-05-05T05:45:48.680Z,1016.01
2023-05-05T05:46:48.617Z,1016.00
2023-05-05T05:47:48.637Z,1016.02
2023-05-05T05:48:48.606Z,1016.01
2023-05-05T05:49:48.576Z,1016.06
2023-05-05T05:50:48.555Z,1016.03
2023-05-05T05:51:48.557Z,1016.07
2023-05-05T05:52:48.550Z,1016.06
2023-05-05T05:53:48.528Z,1016.03
2023-05-05T05:54:48.532Z,1016.05
2023-05-05T05:55:48.515Z,1016.05
2023-05-05T05:56:48.554Z,1016.07
2023-05-05T05:57:48.489Z,1016.09
2023-05-05T05:58:48.506Z,1016.08
2023-05-05T05:59:48.463Z,1016.06
2023-05-05T06:00:48.454Z,1016.05
2023-05-05T06:01:48.440Z,1016.08
2023-05-05T06:02:48.550Z,1016.08
2023-05-05T06:03:48.462Z,1016.04
2023-05-05T06:04:48.411Z,1015.95
2023-05-05T06:05:48.428Z,1015.98
2023-05-05T06:06:48.405Z,1015.96
2023-05-05T06:07:48.414Z,1015.98
2023-05-05T06:08:48.350Z,1015.93
2023-05-05T06:09:48.368Z,1015.93
2023-05-05T06:10:48.360Z,1015.95
2023-05-05T06:11:48.344Z,1015.95
2023-05-05T06:12:48.352Z,1016.01
2023-05-05T06:13:48.313Z,1016.01
2023-05-05T06:14:48.311Z,1016.00
2023-05-05T06:15:48.365Z,1015.97
2023-05-05T06:16:55.035Z,1016.01
2023-05-05T06:17:48.313Z,1016.05
2023-05-05T06:18:48.247Z,1016.02
2023-05-05T06:19:48.254Z,1016.01
2023-05-05T06:20:48.309Z,1016.10
2023-05-05T06:21:48.237Z,1016.04
2023-05-05T06:22:48.221Z,1016.04
2023-05-05T06:23:48.227Z,1016.08
2023-05-05T06:24:48.198Z,1016.04
2023-05-05T06:25:48.280Z,1016.04
2023-05-05T06:26:48.166Z,1016.04
2023-05-05T06:27:48.215Z,1016.08
2023-05-05T06:28:48.152Z,1016.06
2023-05-05T06:29:48.180Z,1016.07
2023-05-05T06:30:48.151Z,1016.06
2023-05-05T06:31:48.170Z,1016.06
2023-05-05T06:32:48.149Z,1016.05
2023-05-05T06:33:48.120Z,1016.05
2023-05-05T06:34:48.096Z,1016.03
2023-05-05T06:35:48.075Z,1016.06
2023-05-05T06:36:48.206Z,1016.04
2023-05-05T06:37:48.058Z,1016.01
2023-05-05T06:38:48.056Z,1016.02
2023-05-05T06:39:48.052Z,1016.02
2023-05-05T06:40:48.033Z,1016.05
2023-05-05T06:41:48.007Z,1016.05
2023-05-05T06:42:48.016Z,1016.05
2023-05-05T06:43:47.995Z,1016.05
2023-05-05T06:44:47.974Z,1016.08
2023-05-05T06:45:48.062Z,1016.06
2023-05-05T06:46:48.021Z,1016.09
2023-05-05T06:47:48.088Z,1016.14
2023-05-05T06:48:47.937Z,1016.11
2023-05-05T06:49:47.942Z,1016.15
2023-05-05T06:50:47.911Z,1016.13
2023-05-05T06:51:47.922Z,1016.09
2023-05-05T06:52:48.057Z,1016.08
2023-05-05T06:53:48.022Z,1016.11
2023-05-05T06:54:47.891Z,1016.09
2023-05-05T06:55:47.891Z,1016.06
2023-05-05T06:56:47.865Z,1016.05
2023-05-05T06:57:47.880Z,1016.05
2023-05-05T06:58:47.839Z,1016.11
2023-05-05T06:59:47.843Z,1016.02
2023-05-05T07:00:47.840Z,1016.04
2023-05-05T07:01:47.827Z,1016.04
2023-05-05T07:02:47.851Z,1016.05
2023-05-05T07:03:47.848Z,1016.05
2023-05-05T07:04:47.777Z,1016.07
2023-05-05T07:05:47.769Z,1016.07
2023-05-05T07:06:47.797Z,1016.07
2023-05-05T07:07:47.733Z,1016.08
2023-05-05T07:08:47.727Z,1016.06
2023-05-05T07:09:47.713Z,1016.06
2023-05-05T07:10:47.818Z,1016.10
2023-05-05T07:11:47.735Z,1016.12
2023-05-05T07:12:47.701Z,1016.13
2023-05-05T07:13:47.683Z,1016.14
2023-05-05T07:14:47.668Z,1016.13
2023-05-05T07:15:47.670Z,1016.14
2023-05-05T07:16:47.638Z,1016.12
2023-05-05T07:17:47.667Z,1016.10
2023-05-05T07:18:47.646Z,1016.12
2023-05-05T07:19:47.638Z,1016.10
2023-05-05T07:20:47.622Z,1016.12
2023-05-05T07:21:47.680Z,1016.12
2023-05-05T07:22:47.580Z,1016.13
2023-05-05T07:23:47.655Z,1016.12
2023-05-05T07:24:48.623Z,1016.16
2023-05-05T07:25:47.594Z,1016.17
2023-05-05T07:26:47.538Z,1016.15
2023-05-05T07:27:47.565Z,1016.13
2023-05-05T07:28:47.548Z,1016.15
2023-05-05T07:29:47.506Z,1016.14
2023-05-05T07:30:47.578Z,1016.16
2023-05-05T07:31:47.579Z,1016.15
2023-05-05T07:32:47.509Z,1016.19
2023-05-05T07:33:47.485Z,1016.18
2023-05-05T07:34:47.545Z,1016.20
2023-05-05T07:35:47.494Z,1016.18
2023-05-05T07:36:47.446Z,1016.21
2023-05-05T07:37:47.440Z,1016.21
2023-05-05T07:38:47.414Z,1016.24
2023-05-05T07:39:47.460Z,1016.26
2023-05-05T07:40:47.388Z,1016.27
2023-05-05T07:41:47.376Z,1016.28
2023-05-05T07:42:47.576Z,1016.29
2023-05-05T07:43:47.444Z,1016.26
2023-05-05T07:44:47.447Z,1016.29
2023-05-05T07:45:47.353Z,1016.30
2023-05-05T07:46:47.331Z,1016.28
2023-05-05T07:47:47.347Z,1016.30
2023-05-05T07:48:47.376Z,1016.29
2023-05-05T07:49:47.311Z,1016.31
2023-05-05T07:50:47.305Z,1016.32
2023-05-05T07:51:47.301Z,1016.30
2023-05-05T07:52:51.804Z,1016.32
2023-05-05T07:53:47.267Z,1016.29
2023-05-05T07:54:47.259Z,1016.32
2023-05-05T07:55:47.238Z,1016.29
2023-05-05T07:56:47.219Z,1016.26
2023-05-05T07:57:47.232Z,1016.25
2023-05-05T07:58:47.195Z,1016.27
2023-05-05T07:59:47.212Z,1016.28
2023-05-05T08:00:47.170Z,1016.28
2023-05-05T08:01:47.161Z,1016.27
2023-05-05T08:02:47.305Z,1016.28
2023-05-05T08:03:47.202Z,1016.25
2023-05-05T08:04:47.178Z,1016.32
2023-05-05T08:05:47.130Z,1016.28
2023-05-05T08:06:47.124Z,1016.27
2023-05-05T08:07:47.120Z,1016.28
2023-05-05T08:08:47.102Z,1016.25
2023-05-05T08:09:47.157Z,1016.22
2023-05-05T08:10:47.068Z,1016.21
2023-05-05T08:11:47.066Z,1016.20
2023-05-05T08:12:47.082Z,1016.17
2023-05-05T08:13:47.059Z,1016.17
2023-05-05T08:14:47.043Z,1016.14
2023-05-05T08:15:47.086Z,1016.14
2023-05-05T08:16:47.009Z,1016.14
2023-05-05T08:17:47.086Z,1016.13
2023-05-05T08:18:46.977Z,1016.13
2023-05-05T08:19:46.994Z,1016.10
2023-05-05T08:20:46.960Z,1016.13
2023-05-05T08:21:47.110Z,1016.04
2023-05-05T08:22:47.000Z,1016.07
2023-05-05T08:23:46.929Z,1016.05
2023-05-05T08:24:46.930Z,1016.08
2023-05-05T08:25:46.919Z,1016.07
2023-05-05T08:26:46.944Z,1016.03
2023-05-05T08:27:47.009Z,1015.99
2023-05-05T08:28:46.870Z,1016.01
2023-05-05T08:29:46.887Z,1015.96
2023-05-05T08:30:46.863Z,1015.99
2023-05-05T08:31:46.925Z,1015.97
2023-05-05T08:32:46.935Z,1015.94
2023-05-05T08:33:46.826Z,1015.91
2023-05-05T08:34:46.822Z,1015.93
2023-05-05T08:35:46.866Z,1015.93
2023-05-05T08:36:46.800Z,1015.93
2023-05-05T08:37:46.816Z,1015.97
2023-05-05T08:38:46.804Z,1015.95
2023-05-05T08:39:46.763Z,1015.99
2023-05-05T08:40:46.761Z,1015.93
2023-05-05T08:41:46.753Z,1015.99
2023-05-05T08:42:46.770Z,1015.98
2023-05-05T08:43:46.733Z,1016.02
2023-05-05T08:44:46.731Z,1015.99
2023-05-05T08:45:46.708Z,1016.00
2023-05-05T08:46:46.730Z,1015.99
2023-05-05T08:47:47.105Z,1016.01
2023-05-05T08:48:46.681Z,1015.95
2023-05-05T08:49:46.733Z,1015.99
2023-05-05T08:50:46.674Z,1016.03
2023-05-05T08:51:46.681Z,1016.03
2023-05-05T08:52:48.091Z,1016.01
2023-05-05T08:53:46.614Z,1015.97
2023-05-05T08:54:46.605Z,1016.03
2023-05-05T08:55:46.594Z,1016.02
2023-05-05T08:56:46.595Z,1016.02
2023-05-05T08:57:46.601Z,1016.01
2023-05-05T08:58:46.556Z,1016.04
2023-05-05T08:59:46.558Z,1016.01
2023-05-05T09:00:46.639Z,1016.03
2023-05-05T09:01:46.560Z,1015.99
2023-05-05T09:02:46.699Z,1016.00
2023-05-05T09:03:46.516Z,1016.01
2023-05-05T09:04:46.505Z,1016.01
2023-05-05T09:05:46.512Z,1016.01
2023-05-05T09:06:46.481Z,1016.01
2023-05-05T09:07:46.459Z,1015.98
2023-05-05T09:08:46.466Z,1015.99
2023-05-05T09:09:46.460Z,1016.00
2023-05-05T09:10:46.438Z,1016.05
2023-05-05T09:11:46.441Z,1015.99
2023-05-05T09:12:46.448Z,1016.05
2023-05-05T09:13:46.428Z,1016.03
2023-05-05T09:14:46.398Z,1016.02
2023-05-05T09:15:46.392Z,1016.07
2023-05-05T09:16:46.418Z,1016.06
2023-05-05T09:17:46.387Z,1016.00
2023-05-05T09:18:46.402Z,1015.99
2023-05-05T09:19:46.336Z,1015.98
2023-05-05T09:20:46.334Z,1015.97
2023-05-05T09:21:46.357Z,1015.98
2023-05-05T09:22:46.349Z,1016.00
2023-05-05T09:23:46.304Z,1015.97
2023-05-05T09:24:46.352Z,1015.95
2023-05-05T09:25:46.319Z,1015.98
2023-05-05T09:26:46.272Z,1015.99
2023-05-05T09:27:46.297Z,1016.01
2023-05-05T09:28:46.241Z,1015.93
2023-05-05T09:29:46.280Z,1015.96
2023-05-05T09:30:46.253Z,1015.95
2023-05-05T09:31:46.544Z,1015.92
2023-05-05T09:32:46.240Z,1015.91
2023-05-05T09:33:46.237Z,1015.90
2023-05-05T09:34:46.181Z,1015.94
2023-05-05T09:35:46.205Z,1015.90
2023-05-05T09:36:46.183Z,1015.93
2023-05-05T09:37:46.207Z,1015.87
2023-05-05T09:38:46.209Z,1015.88
2023-05-05T09:39:46.135Z,1015.85
2023-05-05T09:40:46.130Z,1015.84
2023-05-05T09:41:46.138Z,1015.81
2023-05-05T09:42:46.126Z,1015.85
2023-05-05T09:43:46.095Z,1015.78
2023-05-05T09:44:46.093Z,1015.80
2023-05-05T09:45:46.073Z,1015.77
2023-05-05T09:46:46.154Z,1015.80
2023-05-05T09:47:46.130Z,1015.80
2023-05-05T09:48:46.104Z,1015.82
2023-05-05T09:49:46.068Z,1015.80
2023-05-05T09:50:46.018Z,1015.78
2023-05-05T09:51:46.030Z,1015.72
2023-05-05T09:52:46.706Z,1015.81
2023-05-05T09:53:46.169Z,1015.82
2023-05-05T09:54:46.025Z,1015.84
2023-05-05T09:55:46.004Z,1015.87
2023-05-05T09:56:45.973Z,1015.90
2023-05-05T09:57:46.037Z,1015.90
2023-05-05T09:58:45.948Z,1015.84
2023-05-05T09:59:46.474Z,1015.89
2023-05-05T10:00:45.959Z,1015.92
2023-05-05T10:01:45.985Z,1015.94
2023-05-05T10:02:45.904Z,1015.95
2023-05-05T10:03:45.899Z,1015.91
2023-05-05T10:04:45.937Z,1015.94
2023-05-05T10:05:45.911Z,1015.89
2023-05-05T10:06:45.906Z,1015.94
2023-05-05T10:07:45.881Z,1015.88
2023-05-05T10:08:45.831Z,1015.87
2023-05-05T10:09:45.823Z,1015.83
2023-05-05T10:10:45.829Z,1015.85
2023-05-05T10:11:45.843Z,1015.88
2023-05-05T10:12:45.814Z,1015.86
2023-05-05T10:13:45.824Z,1015.90
2023-05-05T10:14:45.788Z,1015.89
2023-05-05T10:15:45.806Z,1015.93
2023-05-05T10:16:45.917Z,1015.92
2023-05-05T10:17:57.798Z,1015.87
2023-05-05T10:18:45.734Z,1015.86
2023-05-05T10:19:45.743Z,1015.84
2023-05-05T10:20:45.842Z,1015.83
2023-05-05T10:21:45.721Z,1015.80
2023-05-05T10:22:45.723Z,1015.79
2023-05-05T10:23:45.676Z,1015.81
2023-05-05T10:24:45.668Z,1015.74
2023-05-05T10:25:45.708Z,1015.78
2023-05-05T10:26:45.715Z,1015.72
2023-05-05T10:27:45.679Z,1015.73
2023-05-05T10:28:45.634Z,1015.73
2023-05-05T10:29:45.662Z,1015.69
2023-05-05T10:30:45.650Z,1015.69
2023-05-05T10:31:45.613Z,1015.70
2023-05-05T10:32:59.874Z,1015.71
2023-05-05T10:33:45.665Z,1015.71
2023-05-05T10:34:45.578Z,1015.69
2023-05-05T10:35:45.563Z,1015.69
2023-05-05T10:36:45.539Z,1015.67
2023-05-05T10:37:45.589Z,1015.67
2023-05-05T10:38:45.532Z,1015.70
2023-05-05T10:39:45.539Z,1015.65
2023-05-05T10:40:45.521Z,1015.63
2023-05-05T10:41:45.497Z,1015.68
2023-05-05T10:42:45.514Z,1015.62
2023-05-05T10:43:45.495Z,1015.71
2023-05-05T10:44:45.497Z,1015.74
2023-05-05T10:45:45.510Z,1015.63
2023-05-05T10:46:45.573Z,1015.66
2023-05-05T10:47:45.516Z,1015.60
2023-05-05T10:48:45.460Z,1015.58
2023-05-05T10:49:45.405Z,1015.61
2023-05-05T10:50:45.447Z,1015.66
2023-05-05T10:51:45.414Z,1015.61
2023-05-05T10:52:45.427Z,1015.60
2023-05-05T10:53:45.437Z,1015.60
2023-05-05T10:54:45.376Z,1015.59
2023-05-05T10:55:45.384Z,1015.55
2023-05-05T10:56:45.345Z,1015.54
2023-05-05T10:57:45.380Z,1015.57
2023-05-05T10:58:59.244Z,1015.58
2023-05-05T10:59:45.317Z,1015.61
2023-05-05T11:00:45.320Z,1015.58
2023-05-05T11:01:45.310Z,1015.58
2023-05-05T11:02:45.302Z,1015.59
2023-05-05T11:03:45.299Z,1015.53
2023-05-05T11:04:45.304Z,1015.49
2023-05-05T11:05:45.257Z,1015.53
2023-05-05T11:06:45.283Z,1015.47
2023-05-05T11:07:45.254Z,1015.49
2023-05-05T11:08:45.212Z,1015.48
2023-05-05T11:09:45.242Z,1015.51
2023-05-05T11:10:45.250Z,1015.44
2023-05-05T11:11:45.192Z,1015.41
2023-05-05T11:12:45.191Z,1015.46
2023-05-05T11:13:45.172Z,1015.45
2023-05-05T11:14:45.244Z,1015.41
2023-05-05T11:15:45.137Z,1015.43
2023-05-05T11:16:45.212Z,1015.34
2023-05-05T11:17:45.139Z,1015.34
2023-05-05T11:18:45.116Z,1015.38
2023-05-05T11:19:45.099Z,1015.42
2023-05-05T11:20:45.124Z,1015.33
2023-05-05T11:21:45.117Z,1015.28
2023-05-05T11:22:45.091Z,1015.29
2023-05-05T11:23:45.081Z,1015.18
2023-05-05T11:24:45.053Z,1015.20
2023-05-05T11:25:45.041Z,1015.19
2023-05-05T11:26:45.059Z,1015.26
2023-05-05T11:27:45.019Z,1015.17
2023-05-05T11:28:45.016Z,1015.30
2023-05-05T11:29:44.990Z,1015.24
2023-05-05T11:30:45.043Z,1015.22
2023-05-05T11:31:44.964Z,1015.23
2023-05-05T11:32:45.051Z,1015.24
2023-05-05T11:33:44.958Z,1015.19
2023-05-05T11:34:44.966Z,1015.17
2023-05-05T11:35:44.960Z,1015.17
2023-05-05T11:36:44.946Z,1015.15
2023-05-05T11:37:44.934Z,1015.16
2023-05-05T11:38:44.907Z,1015.19
2023-05-05T11:39:44.906Z,1015.16
2023-05-05T11:40:44.927Z,1015.20
2023-05-05T11:41:44.888Z,1015.21
2023-05-05T11:42:44.858Z,1015.20
2023-05-05T11:43:44.849Z,1015.16
2023-05-05T11:44:44.918Z,1015.12
2023-05-05T11:45:45.011Z,1015.04
2023-05-05T11:46:44.927Z,1015.10
2023-05-05T11:47:44.807Z,1015.05
2023-05-05T11:48:44.824Z,1015.05
2023-05-05T11:49:44.831Z,1015.01
2023-05-05T11:50:44.774Z,1015.07
2023-05-05T11:51:44.778Z,1015.00
2023-05-05T11:52:44.753Z,1015.00
2023-05-05T11:53:44.747Z,1014.97
2023-05-05T11:54:44.774Z,1015.01
2023-05-05T11:55:44.726Z,1015.05
2023-05-05T11:56:44.713Z,1015.04
2023-05-05T11:57:44.704Z,1015.03
2023-05-05T11:58:44.731Z,1015.04
2023-05-05T11:59:44.731Z,1014.99
2023-05-05T12:00:44.695Z,1014.96
2023-05-05T12:01:44.668Z,1015.00
2023-05-05T12:02:44.731Z,1015.03
2023-05-05T12:03:44.797Z,1014.97
2023-05-05T12:04:44.684Z,1014.94
2023-05-05T12:05:44.650Z,1014.93